Steptoe Valley WMA, Nevada Weather observations

Data are for 10 minute period ending at time listed.
 Day   Time   Solar   Ave.   Ave.  Ave.  Vector  Max.   Baro.   Total    
  of    of     Rad.   Air    Rel.  Wind   Wind   Wind  Press.  Precip.   
Year   Day            Temp.  Hum.  Speed  Dir.   Gust                    
2015   (PST)  Kw/m2    F      %     mph   deg.    mph    mb.     in.     
-------------------------------------------------------------------------
  64   17:00   0.10   47.0    24    4.6   336     6.1   810.1    0.00 
  64   17:10   0.06   44.1    28    4.0   343     4.7   810.2    0.00 
  64   17:20   0.02   40.4    33    3.8   354     4.4   810.3    0.00 
  64   17:30   0.01   37.7    38    3.3     2     4.0   810.4    0.00 
  64   17:40   0.01   37.3    41    2.4     4     3.9   810.6    0.00 
  64   17:50   0.00   36.9    43    2.6     9     3.4   810.7    0.00 
  64   18:00   0.00   36.4    43    2.8    22     4.0   810.9    0.00 
  64   18:10   0.00   34.1    49    1.0   145     2.4   810.9    0.00 
  64   18:20   0.00   33.5    52    1.4   105     3.9   811.0    0.00 
  64   18:30   0.00   32.9    57    2.7   113     4.7   811.1    0.00 
  64   18:40   0.00   31.2    61    1.2   178     2.5   811.1    0.00 
  64   18:50   0.00   30.4    63    1.1   136     2.5   811.1    0.00 
  64   19:00   0.00   32.1    58    0.5    94     1.8   811.1    0.00 
  64   19:10   0.00   29.7    67    4.8    91     6.7   811.2    0.00 
  64   19:20   0.00   29.1    70    3.4    94     6.1   811.3    0.00 
  64   19:30   0.00   27.9    72    2.1   146     6.3   811.4    0.00 
  64   19:40   0.00   28.2    73    3.2   111     6.8   811.4    0.00 
  64   19:50   0.00   26.8    72    0.7   189     1.5   811.4    0.00 
  64   20:00   0.00   21.5    77    1.7   170     3.1   811.4    0.00 
  64   20:10   0.00   22.2    84    1.1   138     2.6   811.5    0.00 
  64   20:20   0.00   19.9    84    3.1   162     4.2   811.7    0.00 
  64   20:30   0.00   23.4    84    1.8   180     2.7   811.7    0.00 
  64   20:40   0.00   21.3    84    1.6   168     2.3   811.7    0.00 
  64   20:50   0.00   20.7    84    0.9   154     2.1   811.7    0.00 
  64   21:00   0.00   20.6    85    0.9   157     2.2   811.7    0.00 
  64   21:10   0.00   20.4    86    1.8   170     3.1   811.7    0.00 
  64   21:20   0.00   21.2    88    3.9   170     5.8   811.8    0.00 
  64   21:30   0.00   20.7    87    3.1   180     4.6   811.8    0.00 
  64   21:40   0.00   21.0    88    2.7   182     3.9   811.8    0.00 
  64   21:50   0.00   20.8    88    2.4   185     4.0   811.9    0.00 
  64   22:00   0.00   20.9    88    3.3   174     4.7   811.8    0.00 
  64   22:10   0.00   21.2    88    2.6   153     3.9   811.8    0.00 
  64   22:20   0.00   22.5    86    4.3   159     6.6   811.8    0.00 
  64   22:30   0.00   22.9    83    3.1   157     5.5   811.8    0.00 
  64   22:40   0.00   21.7    83    1.6   200     2.5   811.8    0.00 
  64   22:50   0.00   20.4    84    2.3   197     3.7   811.7    0.00 
  64   23:00   0.00   19.4    85    2.4   186     3.9   811.7    0.00 
  64   23:10   0.00   21.0    87    3.2   170     4.7   811.6    0.00 
  64   23:20   0.00   20.9    86    3.8   158     5.8   811.6    0.00 
  64   23:30   0.00   20.8    85    3.6   172     5.3   811.6    0.00 
  64   23:40   0.00   18.9    85    4.4   191     6.1   811.5    0.00 
  64   23:50   0.00   18.3    86    3.0   188     4.6   811.4    0.00 
  65    0:00   0.00   18.0    87    2.2   202     3.7   811.4    0.00 
  65    0:10   0.00   17.8    87    2.8   187     4.3   811.4    0.00 
  65    0:20   0.00   16.9    86    2.6   171     3.7   811.4    0.00 
  65    0:30   0.00   16.6    88    3.4   181     5.8   811.4    0.00 
  65    0:40   0.00   17.5    88    4.2   174     6.4   811.3    0.00 
  65    0:50   0.00   17.3    88    4.1   187     5.8   811.3    0.00 
  65    1:00   0.00   17.2    89    3.8   186     5.6   811.3    0.00 
  65    1:10   0.00   17.6    89    4.8   176     6.9   811.3    0.00 
  65    1:20   0.00   18.2    88    4.8   176     7.3   811.3    0.00 
  65    1:30   0.00   17.4    87    1.8   154     3.3   811.4    0.00 
  65    1:40   0.00   16.1    88    2.5   183     4.7   811.3    0.00 
  65    1:50   0.00   16.1    88    3.3   167     4.5   811.2    0.00 
  65    2:00   0.00   15.8    88    2.7   170     4.3   811.2    0.00 
  65    2:10   0.00   15.8    89    2.3   148     3.2   811.2    0.00 
  65    2:20   0.00   16.0    88    2.8   161     3.5   811.1    0.00 
  65    2:30   0.00   15.4    88    2.4   177     3.4   811.0    0.00 
  65    2:40   0.00   14.8    88    0.4   170     1.9   811.0    0.00 
  65    2:50   0.00   14.8    88    0.3   186     2.1   811.0    0.00 
  65    3:00   0.00   15.2    89    0.8   138     2.3   810.9    0.00 
  65    3:10   0.00   14.8    88    1.9   162     3.5   810.9    0.00 
  65    3:20   0.00   13.5    88    3.6   174     5.2   810.9    0.00 
  65    3:30   0.00   13.9    89    3.1   187     4.2   810.8    0.00 
  65    3:40   0.00   13.9    88    1.7   158     3.0   810.8    0.00 
  65    3:50   0.00   14.0    88    1.5   146     3.7   810.8    0.00 
  65    4:00   0.00   14.1    88    1.9   152     2.9   810.8    0.00 
  65    4:10   0.00   13.9    88    2.6   173     3.7   810.8    0.00 
  65    4:20   0.00   13.3    88    2.4   163     3.7   810.9    0.00 
  65    4:30   0.00   13.0    88    1.6   157     3.7   811.0    0.00 
  65    4:40   0.00   12.9    88    2.3   163     4.2   811.0    0.00 
  65    4:50   0.00   14.8    89    3.6   161     5.4   811.1    0.00 
  65    5:00   0.00   15.9    87    3.1   154     5.0   811.1    0.00 
  65    5:10   0.00   16.0    86    1.9   155     3.9   811.2    0.00 
  65    5:20   0.00   16.2    86    1.0   136     2.5   811.3    0.00 
  65    5:30   0.00   15.4    85    1.9   185     3.1   811.3    0.00 
  65    5:40   0.00   13.8    85    0.8   148     3.2   811.4    0.00 
  65    5:50   0.00   14.0    86    0.0     0     0.0   811.5    0.00 
  65    6:00   0.00   13.4    86    2.1   194     4.8   811.6    0.00 
  65    6:10   0.00   13.1    87    3.1   177     4.5   811.6    0.00 
  65    6:20   0.01   12.8    87    3.7   174     5.3   811.5    0.00 
  65    6:30   0.02   13.0    87    3.2   166     4.7   811.5    0.00 
  65    6:40   0.02   13.6    87    2.9   161     5.0   811.5    0.00 
  65    6:50   0.02   14.7    87    3.2   163     4.5   811.6    0.00 
  65    7:00   0.05   15.7    86    2.2   155     3.1   811.7    0.00 
  65    7:10   0.15   18.9    86    3.7   158     5.3   811.7    0.00 
  65    7:20   0.18   22.4    80    3.7   164     5.7   811.9    0.00 
  65    7:30   0.22   24.8    74    4.1   181     5.8   812.1    0.00 
  65    7:40   0.26   26.2    70    5.5   175     8.1   812.3    0.00 
  65    7:50   0.30   26.8    68    5.9   174     8.4   812.4    0.00 
  65    8:00   0.34   28.3    67    5.0   167     7.6   812.5    0.00 
  65    8:10   0.37   30.2    62    4.2   177     6.2   812.6    0.00 
  65    8:20   0.40   32.5    58    2.6   177     3.8   812.7    0.00 
  65    8:30   0.43   35.1    54    2.0   184     3.4   812.7    0.00 
  65    8:40   0.47   37.2    50    2.1   192     3.7   812.8    0.00 
  65    8:50   0.49   38.2    47    2.4   189     4.1   812.7    0.00 
  65    9:00   0.52   39.6    41    1.8   175     3.9   812.7    0.00 
  65    9:10   0.55   41.4    36    1.0   146     2.9   812.7    0.00 
  65    9:20   0.58   43.6    33    1.8   155     3.0   812.6    0.00 
  65    9:30   0.60   42.6    32    1.8   135     4.2   812.6    0.00 
  65    9:40   0.63   42.9    29    1.5   101     3.3   812.6    0.00 
  65    9:50   0.65   43.4    28    1.6    70     3.7   812.6    0.00 
  65   10:00   0.67   43.7    28    2.0   102     4.4   812.6    0.00 
  65   10:10   0.69   44.6    28    2.2    56     5.0   812.5    0.00 
  65   10:20   0.71   44.8    28    3.1    41     6.1   812.4    0.00 
  65   10:30   0.72   45.6    27    2.5    11     6.5   812.3    0.00 
  65   10:40   0.73   46.3    27    4.6   348     9.9   812.3    0.00 
  65   10:50   0.74   46.9    28    5.0   347     9.6   812.2    0.00 
  65   11:00   0.75   46.7    28    5.8   354    11.4   812.2    0.00 
  65   11:10   0.76   47.2    27    7.3   328    10.4   812.1    0.00 
  65   11:20   0.77   47.6    25    6.8   330    11.7   812.0    0.00 
  65   11:30   0.78   48.0    23    6.3   338    10.7   811.9    0.00 
  65   11:40   0.78   48.5    26    6.3   333    10.9   811.8    0.00 
  65   11:50   0.78   48.7    25    7.1   340    11.2   811.7    0.00 
  65   12:00   0.78   49.2    26    7.4   348    13.4   811.6    0.00 
  65   12:10   0.78   49.9    22    6.5   343    11.0   811.4    0.00 
  65   12:20   0.77   50.3    22    5.3    11     9.6   811.2    0.00 
  65   12:30   0.76   50.0    22    5.3     8     9.1   811.1    0.00 
  65   12:40   0.76   51.3    21    5.9   337    10.5   810.9    0.00 
  65   12:50   0.75   51.2    20    3.4   357     7.7   810.7    0.00 
  65   13:00   0.73   51.7    20    6.1   347    10.0   810.6    0.00 
  65   13:10   0.72   53.1    20    4.2   321     8.4   810.4    0.00 
  65   13:20   0.70   52.7    20    3.4    12     7.7   810.2    0.00 
  65   13:30   0.69   53.3    20    5.0   305     9.7   810.2    0.00 
  65   13:40   0.67   53.0    20    4.6    10     7.3   810.1    0.00 
  65   13:50   0.65   53.3    20    3.8   337     7.7   810.0    0.00 
  65   14:00   0.63   53.6    20    4.3   327     9.6   810.0    0.00 
  65   14:10   0.61   53.8    20    5.0     4    10.9   809.9    0.00 
  65   14:20   0.58   53.6    19    4.4   334     9.6   809.8    0.00 
  65   14:30   0.56   54.2    19    3.9   310     7.6   809.8    0.00 
  65   14:40   0.53   54.7    18    3.4   336     8.8   809.7    0.00 
  65   14:50   0.51   54.2    19    4.6   340    11.5   809.8    0.00 
  65   15:00   0.48   54.7    20    2.5   317     5.8   809.7    0.00 
  65   15:10   0.45   54.7    21    4.3   350    12.1   809.7    0.00 
  65   15:20   0.42   54.7    22    4.1   290     7.4   809.7    0.00 
  65   15:30   0.38   54.4    24    5.2   327     9.4   809.6    0.00 
  65   15:40   0.35   54.4    23    6.1   329    10.5   809.6    0.00 
  65   15:50   0.32   54.2    22    5.9   330    10.6   809.6    0.00 
  65   16:00   0.29   54.1    21    8.3   336    12.9   809.5    0.00 
  65   16:10   0.26   53.7    20    8.8   344    13.4   809.4    0.00 
  65   16:20   0.22   53.3    20    9.0   337    12.2   809.4    0.00 
  65   16:30   0.19   52.7    20    9.5   341    14.4   809.4    0.00 
  65   16:40   0.16   52.1    22    8.0   336    11.4   809.3    0.00 
  65   16:50   0.13   51.2    23    8.5   333    12.5   809.2    0.00 

Return to Steptoe Valley WMA graphs page.


Western Regional Climate Center,wrcc@dri.edu